sensor_id;sensor_type;location;lat;lon;timestamp;temperature;humidity
32173;DHT22;18679;45.190;5.722;2023-07-29T00:02:31;27.60;48.30
32173;DHT22;18679;45.190;5.722;2023-07-29T00:05:33;27.40;48.30
32173;DHT22;18679;45.190;5.722;2023-07-29T00:08:33;27.30;48.40
32173;DHT22;18679;45.190;5.722;2023-07-29T00:11:34;27.20;48.40
32173;DHT22;18679;45.190;5.722;2023-07-29T00:14:35;27.20;48.40
32173;DHT22;18679;45.190;5.722;2023-07-29T00:17:36;27.20;48.20
32173;DHT22;18679;45.190;5.722;2023-07-29T00:20:37;27.20;48.20
32173;DHT22;18679;45.190;5.722;2023-07-29T00:23:37;27.20;48.10
32173;DHT22;18679;45.190;5.722;2023-07-29T00:26:38;27.20;48.10
32173;DHT22;18679;45.190;5.722;2023-07-29T00:29:39;27.20;48.10
32173;DHT22;18679;45.190;5.722;2023-07-29T00:32:40;27.20;48.10
32173;DHT22;18679;45.190;5.722;2023-07-29T00:35:40;27.20;48.10
32173;DHT22;18679;45.190;5.722;2023-07-29T00:38:41;27.20;48.10
32173;DHT22;18679;45.190;5.722;2023-07-29T00:41:42;27.20;48.10
32173;DHT22;18679;45.190;5.722;2023-07-29T00:44:43;27.20;48.00
32173;DHT22;18679;45.190;5.722;2023-07-29T00:47:44;27.20;48.10
32173;DHT22;18679;45.190;5.722;2023-07-29T00:50:45;27.20;48.20
32173;DHT22;18679;45.190;5.722;2023-07-29T00:53:46;27.20;48.40
32173;DHT22;18679;45.190;5.722;2023-07-29T00:56:47;27.10;48.70
32173;DHT22;18679;45.190;5.722;2023-07-29T00:59:48;27.10;48.80
32173;DHT22;18679;45.190;5.722;2023-07-29T01:02:49;27.10;49.00
32173;DHT22;18679;45.190;5.722;2023-07-29T01:06:12;27.10;49.20
32173;DHT22;18679;45.190;5.722;2023-07-29T01:09:23;27.10;49.50
32173;DHT22;18679;45.190;5.722;2023-07-29T01:12:51;27.00;49.60
32173;DHT22;18679;45.190;5.722;2023-07-29T01:15:58;27.10;49.80
32173;DHT22;18679;45.190;5.722;2023-07-29T01:19:05;27.00;49.90
32173;DHT22;18679;45.190;5.722;2023-07-29T01:22:08;27.00;49.90
32173;DHT22;18679;45.190;5.722;2023-07-29T01:25:09;27.00;50.50
32173;DHT22;18679;45.190;5.722;2023-07-29T01:28:10;27.00;49.90
32173;DHT22;18679;45.190;5.722;2023-07-29T01:34:30;26.90;50.10
32173;DHT22;18679;45.190;5.722;2023-07-29T01:37:34;26.90;50.20
32173;DHT22;18679;45.190;5.722;2023-07-29T01:40:36;26.90;50.10
32173;DHT22;18679;45.190;5.722;2023-07-29T01:43:38;26.90;50.10
32173;DHT22;18679;45.190;5.722;2023-07-29T01:46:46;26.90;49.90
32173;DHT22;18679;45.190;5.722;2023-07-29T01:49:47;26.80;49.60
32173;DHT22;18679;45.190;5.722;2023-07-29T01:52:48;26.90;49.50
32173;DHT22;18679;45.190;5.722;2023-07-29T01:55:49;26.80;49.30
32173;DHT22;18679;45.190;5.722;2023-07-29T01:58:50;26.80;49.20
32173;DHT22;18679;45.190;5.722;2023-07-29T02:01:51;26.70;49.00
32173;DHT22;18679;45.190;5.722;2023-07-29T02:04:52;26.70;48.80
32173;DHT22;18679;45.190;5.722;2023-07-29T02:07:53;26.70;48.70
32173;DHT22;18679;45.190;5.722;2023-07-29T02:10:54;26.70;48.80
32173;DHT22;18679;45.190;5.722;2023-07-29T02:13:55;26.60;48.80
32173;DHT22;18679;45.190;5.722;2023-07-29T02:16:56;26.60;48.80
32173;DHT22;18679;45.190;5.722;2023-07-29T02:19:57;26.60;48.80
32173;DHT22;18679;45.190;5.722;2023-07-29T02:22:57;26.60;48.70
32173;DHT22;18679;45.190;5.722;2023-07-29T02:25:58;26.60;48.70
32173;DHT22;18679;45.190;5.722;2023-07-29T02:28:59;26.50;48.70
32173;DHT22;18679;45.190;5.722;2023-07-29T02:32:00;26.50;48.80
32173;DHT22;18679;45.190;5.722;2023-07-29T02:35:01;26.50;48.80
32173;DHT22;18679;45.190;5.722;2023-07-29T02:38:02;26.40;48.70
32173;DHT22;18679;45.190;5.722;2023-07-29T02:41:03;26.40;48.70
32173;DHT22;18679;45.190;5.722;2023-07-29T02:44:05;26.40;48.80
32173;DHT22;18679;45.190;5.722;2023-07-29T02:47:06;26.40;48.80
32173;DHT22;18679;45.190;5.722;2023-07-29T02:50:07;26.30;48.90
32173;DHT22;18679;45.190;5.722;2023-07-29T02:53:08;26.30;49.00
32173;DHT22;18679;45.190;5.722;2023-07-29T02:56:08;26.30;49.30
32173;DHT22;18679;45.190;5.722;2023-07-29T02:59:10;26.20;49.50
32173;DHT22;18679;45.190;5.722;2023-07-29T03:02:11;26.20;49.60
32173;DHT22;18679;45.190;5.722;2023-07-29T03:05:12;26.20;49.80
32173;DHT22;18679;45.190;5.722;2023-07-29T03:08:13;26.10;50.00
32173;DHT22;18679;45.190;5.722;2023-07-29T03:11:15;26.10;50.20
32173;DHT22;18679;45.190;5.722;2023-07-29T03:14:16;26.10;50.30
32173;DHT22;18679;45.190;5.722;2023-07-29T03:17:16;26.10;50.50
32173;DHT22;18679;45.190;5.722;2023-07-29T03:20:18;26.10;50.70
32173;DHT22;18679;45.190;5.722;2023-07-29T03:23:19;26.10;51.00
32173;DHT22;18679;45.190;5.722;2023-07-29T03:26:20;26.00;51.30
32173;DHT22;18679;45.190;5.722;2023-07-29T03:29:21;26.00;51.60
32173;DHT22;18679;45.190;5.722;2023-07-29T03:32:22;26.00;52.00
32173;DHT22;18679;45.190;5.722;2023-07-29T03:35:23;25.90;52.30
32173;DHT22;18679;45.190;5.722;2023-07-29T03:38:24;25.90;52.30
32173;DHT22;18679;45.190;5.722;2023-07-29T03:41:25;25.80;52.30
32173;DHT22;18679;45.190;5.722;2023-07-29T03:44:25;25.80;52.30
32173;DHT22;18679;45.190;5.722;2023-07-29T03:47:27;25.80;52.30
32173;DHT22;18679;45.190;5.722;2023-07-29T03:50:29;25.80;52.40
32173;DHT22;18679;45.190;5.722;2023-07-29T03:53:30;25.80;52.50
32173;DHT22;18679;45.190;5.722;2023-07-29T03:56:31;25.70;52.80
32173;DHT22;18679;45.190;5.722;2023-07-29T03:59:32;25.70;53.10
32173;DHT22;18679;45.190;5.722;2023-07-29T04:02:33;25.70;53.30
32173;DHT22;18679;45.190;5.722;2023-07-29T04:05:34;25.70;53.40
32173;DHT22;18679;45.190;5.722;2023-07-29T04:08:35;25.60;53.50
32173;DHT22;18679;45.190;5.722;2023-07-29T04:11:35;25.60;53.80
32173;DHT22;18679;45.190;5.722;2023-07-29T04:14:36;25.50;54.00
32173;DHT22;18679;45.190;5.722;2023-07-29T04:17:37;25.50;54.20
32173;DHT22;18679;45.190;5.722;2023-07-29T04:20:38;25.50;54.40
32173;DHT22;18679;45.190;5.722;2023-07-29T04:23:39;25.40;54.60
32173;DHT22;18679;45.190;5.722;2023-07-29T04:26:40;25.40;54.80
32173;DHT22;18679;45.190;5.722;2023-07-29T04:29:41;25.30;55.00
32173;DHT22;18679;45.190;5.722;2023-07-29T04:32:45;25.20;55.10
32173;DHT22;18679;45.190;5.722;2023-07-29T04:35:48;25.20;55.40
32173;DHT22;18679;45.190;5.722;2023-07-29T04:38:49;25.10;55.60
32173;DHT22;18679;45.190;5.722;2023-07-29T04:41:50;25.10;55.80
32173;DHT22;18679;45.190;5.722;2023-07-29T04:44:51;25.10;56.10
32173;DHT22;18679;45.190;5.722;2023-07-29T04:47:52;25.10;56.20
32173;DHT22;18679;45.190;5.722;2023-07-29T04:50:53;25.10;56.20
32173;DHT22;18679;45.190;5.722;2023-07-29T04:53:54;25.10;56.10
32173;DHT22;18679;45.190;5.722;2023-07-29T04:56:55;25.10;56.10
32173;DHT22;18679;45.190;5.722;2023-07-29T04:59:55;25.10;56.10
32173;DHT22;18679;45.190;5.722;2023-07-29T05:02:56;25.10;56.00
32173;DHT22;18679;45.190;5.722;2023-07-29T05:05:58;25.10;56.00
32173;DHT22;18679;45.190;5.722;2023-07-29T05:09:13;25.10;56.00
32173;DHT22;18679;45.190;5.722;2023-07-29T05:12:14;25.10;56.00
32173;DHT22;18679;45.190;5.722;2023-07-29T05:15:15;25.10;56.00
32173;DHT22;18679;45.190;5.722;2023-07-29T05:18:16;25.10;56.00
32173;DHT22;18679;45.190;5.722;2023-07-29T05:21:17;25.20;56.10
32173;DHT22;18679;45.190;5.722;2023-07-29T05:24:18;25.10;56.00
32173;DHT22;18679;45.190;5.722;2023-07-29T05:27:19;25.10;56.00
32173;DHT22;18679;45.190;5.722;2023-07-29T05:30:19;25.20;56.00
32173;DHT22;18679;45.190;5.722;2023-07-29T05:33:20;25.20;56.00
32173;DHT22;18679;45.190;5.722;2023-07-29T05:36:21;25.20;56.50
32173;DHT22;18679;45.190;5.722;2023-07-29T05:39:22;25.30;55.90
32173;DHT22;18679;45.190;5.722;2023-07-29T05:42:24;25.30;56.00
32173;DHT22;18679;45.190;5.722;2023-07-29T05:45:25;25.30;56.10
32173;DHT22;18679;45.190;5.722;2023-07-29T05:48:27;25.30;56.10
32173;DHT22;18679;45.190;5.722;2023-07-29T05:51:28;25.30;56.00
32173;DHT22;18679;45.190;5.722;2023-07-29T05:54:29;25.40;55.90
32173;DHT22;18679;45.190;5.722;2023-07-29T05:57:30;25.40;55.70
32173;DHT22;18679;45.190;5.722;2023-07-29T06:00:30;25.40;55.40
32173;DHT22;18679;45.190;5.722;2023-07-29T06:03:31;25.50;55.10
32173;DHT22;18679;45.190;5.722;2023-07-29T06:06:32;25.50;55.00
32173;DHT22;18679;45.190;5.722;2023-07-29T06:09:33;25.50;55.00
32173;DHT22;18679;45.190;5.722;2023-07-29T06:12:33;25.50;55.00
32173;DHT22;18679;45.190;5.722;2023-07-29T06:15:34;25.50;54.90
32173;DHT22;18679;45.190;5.722;2023-07-29T06:18:35;25.50;54.90
32173;DHT22;18679;45.190;5.722;2023-07-29T06:21:36;25.50;54.90
32173;DHT22;18679;45.190;5.722;2023-07-29T06:24:37;25.60;55.00
32173;DHT22;18679;45.190;5.722;2023-07-29T06:27:38;25.60;54.80
32173;DHT22;18679;45.190;5.722;2023-07-29T06:30:38;25.80;54.80
32173;DHT22;18679;45.190;5.722;2023-07-29T06:33:39;25.90;54.70
32173;DHT22;18679;45.190;5.722;2023-07-29T06:36:40;25.90;54.40
32173;DHT22;18679;45.190;5.722;2023-07-29T06:39:41;26.00;54.00
32173;DHT22;18679;45.190;5.722;2023-07-29T06:42:41;26.10;54.00
32173;DHT22;18679;45.190;5.722;2023-07-29T06:45:43;26.10;53.80
32173;DHT22;18679;45.190;5.722;2023-07-29T06:48:43;26.20;53.80
32173;DHT22;18679;45.190;5.722;2023-07-29T06:51:44;26.20;53.70
32173;DHT22;18679;45.190;5.722;2023-07-29T06:54:45;26.30;53.40
32173;DHT22;18679;45.190;5.722;2023-07-29T06:57:46;26.30;53.10
32173;DHT22;18679;45.190;5.722;2023-07-29T07:00:47;26.40;53.00
32173;DHT22;18679;45.190;5.722;2023-07-29T07:03:47;26.50;52.90
32173;DHT22;18679;45.190;5.722;2023-07-29T07:06:48;26.60;52.60
32173;DHT22;18679;45.190;5.722;2023-07-29T07:09:49;26.80;52.60
32173;DHT22;18679;45.190;5.722;2023-07-29T07:12:50;26.90;52.40
32173;DHT22;18679;45.190;5.722;2023-07-29T07:15:53;27.10;52.30
32173;DHT22;18679;45.190;5.722;2023-07-29T07:18:54;27.30;52.10
32173;DHT22;18679;45.190;5.722;2023-07-29T07:21:55;27.40;51.60
32173;DHT22;18679;45.190;5.722;2023-07-29T07:24:56;27.50;51.40
32173;DHT22;18679;45.190;5.722;2023-07-29T07:27:56;27.60;51.30
32173;DHT22;18679;45.190;5.722;2023-07-29T07:30:57;27.60;51.20
32173;DHT22;18679;45.190;5.722;2023-07-29T07:33:58;27.70;51.20
32173;DHT22;18679;45.190;5.722;2023-07-29T07:36:59;27.70;50.90
32173;DHT22;18679;45.190;5.722;2023-07-29T07:40:01;27.90;50.60
32173;DHT22;18679;45.190;5.722;2023-07-29T07:43:02;28.20;50.00
32173;DHT22;18679;45.190;5.722;2023-07-29T07:46:03;28.50;49.50
32173;DHT22;18679;45.190;5.722;2023-07-29T07:49:04;28.60;48.80
32173;DHT22;18679;45.190;5.722;2023-07-29T07:52:05;28.70;48.50
32173;DHT22;18679;45.190;5.722;2023-07-29T07:55:06;28.70;48.00
32173;DHT22;18679;45.190;5.722;2023-07-29T07:58:07;28.60;48.00
32173;DHT22;18679;45.190;5.722;2023-07-29T08:01:09;28.50;48.20
32173;DHT22;18679;45.190;5.722;2023-07-29T08:04:09;28.50;48.20
32173;DHT22;18679;45.190;5.722;2023-07-29T08:07:13;28.60;48.20
32173;DHT22;18679;45.190;5.722;2023-07-29T08:10:14;28.70;48.00
32173;DHT22;18679;45.190;5.722;2023-07-29T08:13:15;28.80;47.80
32173;DHT22;18679;45.190;5.722;2023-07-29T08:16:16;29.10;47.90
32173;DHT22;18679;45.190;5.722;2023-07-29T08:19:17;29.00;47.50
32173;DHT22;18679;45.190;5.722;2023-07-29T08:22:18;29.10;47.10
32173;DHT22;18679;45.190;5.722;2023-07-29T08:25:19;29.20;47.00
32173;DHT22;18679;45.190;5.722;2023-07-29T08:28:20;29.20;46.80
32173;DHT22;18679;45.190;5.722;2023-07-29T08:31:21;29.30;46.50
32173;DHT22;18679;45.190;5.722;2023-07-29T08:34:22;29.40;46.10
32173;DHT22;18679;45.190;5.722;2023-07-29T08:37:23;29.60;45.80
32173;DHT22;18679;45.190;5.722;2023-07-29T08:40:27;29.80;45.40
32173;DHT22;18679;45.190;5.722;2023-07-29T08:43:31;29.90;45.00
32173;DHT22;18679;45.190;5.722;2023-07-29T08:46:32;30.00;44.50
32173;DHT22;18679;45.190;5.722;2023-07-29T08:49:33;30.20;44.30
32173;DHT22;18679;45.190;5.722;2023-07-29T08:52:34;30.30;43.90
32173;DHT22;18679;45.190;5.722;2023-07-29T08:55:35;30.40;43.50
32173;DHT22;18679;45.190;5.722;2023-07-29T08:58:37;30.50;43.40
32173;DHT22;18679;45.190;5.722;2023-07-29T09:01:39;30.70;43.30
32173;DHT22;18679;45.190;5.722;2023-07-29T09:04:40;30.70;43.00
32173;DHT22;18679;45.190;5.722;2023-07-29T09:07:41;30.90;42.70
32173;DHT22;18679;45.190;5.722;2023-07-29T09:10:42;31.10;42.40
32173;DHT22;18679;45.190;5.722;2023-07-29T09:13:43;31.20;42.10
32173;DHT22;18679;45.190;5.722;2023-07-29T09:16:44;31.30;42.00
32173;DHT22;18679;45.190;5.722;2023-07-29T09:19:50;31.40;41.80
32173;DHT22;18679;45.190;5.722;2023-07-29T09:22:51;31.50;41.50
32173;DHT22;18679;45.190;5.722;2023-07-29T09:26:01;31.70;41.30
32173;DHT22;18679;45.190;5.722;2023-07-29T09:29:02;31.80;40.70
32173;DHT22;18679;45.190;5.722;2023-07-29T09:32:21;31.90;40.20
32173;DHT22;18679;45.190;5.722;2023-07-29T09:35:23;31.90;40.10
32173;DHT22;18679;45.190;5.722;2023-07-29T09:38:27;31.90;40.20
32173;DHT22;18679;45.190;5.722;2023-07-29T09:41:29;32.10;40.10
32173;DHT22;18679;45.190;5.722;2023-07-29T09:44:36;32.10;39.30
32173;DHT22;18679;45.190;5.722;2023-07-29T09:47:37;32.10;39.00
32173;DHT22;18679;45.190;5.722;2023-07-29T09:50:37;32.20;39.20
32173;DHT22;18679;45.190;5.722;2023-07-29T09:53:46;32.30;39.00
32173;DHT22;18679;45.190;5.722;2023-07-29T09:56:48;32.40;38.70
32173;DHT22;18679;45.190;5.722;2023-07-29T09:59:55;32.60;38.60
32173;DHT22;18679;45.190;5.722;2023-07-29T10:02:57;32.60;38.20
32173;DHT22;18679;45.190;5.722;2023-07-29T10:06:05;32.80;38.20
32173;DHT22;18679;45.190;5.722;2023-07-29T10:09:06;32.90;38.00
32173;DHT22;18679;45.190;5.722;2023-07-29T10:12:09;33.00;37.70
32173;DHT22;18679;45.190;5.722;2023-07-29T10:15:10;33.00;37.40
32173;DHT22;18679;45.190;5.722;2023-07-29T10:18:11;33.00;37.20
32173;DHT22;18679;45.190;5.722;2023-07-29T10:21:16;32.90;37.40
32173;DHT22;18679;45.190;5.722;2023-07-29T10:24:19;32.90;37.80
32173;DHT22;18679;45.190;5.722;2023-07-29T10:27:25;32.80;37.70
32173;DHT22;18679;45.190;5.722;2023-07-29T10:30:28;32.80;37.70
32173;DHT22;18679;45.190;5.722;2023-07-29T10:33:30;32.80;37.40
32173;DHT22;18679;45.190;5.722;2023-07-29T10:36:32;32.90;37.20
32173;DHT22;18679;45.190;5.722;2023-07-29T10:39:38;32.90;36.90
32173;DHT22;18679;45.190;5.722;2023-07-29T10:43:00;33.00;36.80
32173;DHT22;18679;45.190;5.722;2023-07-29T10:46:22;33.10;36.30
32173;DHT22;18679;45.190;5.722;2023-07-29T10:49:26;33.20;36.20
32173;DHT22;18679;45.190;5.722;2023-07-29T10:55:36;33.30;36.00
32173;DHT22;18679;45.190;5.722;2023-07-29T10:58:37;33.50;35.70
32173;DHT22;18679;45.190;5.722;2023-07-29T11:01:42;33.80;35.20
32173;DHT22;18679;45.190;5.722;2023-07-29T11:04:47;33.90;34.60
32173;DHT22;18679;45.190;5.722;2023-07-29T11:07:49;33.90;34.30
32173;DHT22;18679;45.190;5.722;2023-07-29T11:11:07;33.90;34.40
32173;DHT22;18679;45.190;5.722;2023-07-29T11:14:08;33.80;34.30
32173;DHT22;18679;45.190;5.722;2023-07-29T11:17:10;33.90;34.40
32173;DHT22;18679;45.190;5.722;2023-07-29T11:20:12;33.90;34.40
32173;DHT22;18679;45.190;5.722;2023-07-29T11:23:13;33.90;34.40
32173;DHT22;18679;45.190;5.722;2023-07-29T11:26:16;34.00;34.30
32173;DHT22;18679;45.190;5.722;2023-07-29T11:29:17;34.00;34.80
32173;DHT22;18679;45.190;5.722;2023-07-29T11:32:18;34.20;34.20
32173;DHT22;18679;45.190;5.722;2023-07-29T11:35:19;34.20;34.00
32173;DHT22;18679;45.190;5.722;2023-07-29T11:38:21;34.20;34.10
32173;DHT22;18679;45.190;5.722;2023-07-29T11:41:22;34.30;34.00
32173;DHT22;18679;45.190;5.722;2023-07-29T11:44:24;34.40;33.70
32173;DHT22;18679;45.190;5.722;2023-07-29T11:47:25;34.50;33.60
32173;DHT22;18679;45.190;5.722;2023-07-29T11:50:26;34.50;33.50
32173;DHT22;18679;45.190;5.722;2023-07-29T11:53:30;34.50;33.60
32173;DHT22;18679;45.190;5.722;2023-07-29T11:56:32;34.50;33.60
32173;DHT22;18679;45.190;5.722;2023-07-29T11:59:34;34.40;33.70
32173;DHT22;18679;45.190;5.722;2023-07-29T12:02:38;34.60;33.70
32173;DHT22;18679;45.190;5.722;2023-07-29T12:05:39;34.90;33.70
32173;DHT22;18679;45.190;5.722;2023-07-29T12:08:41;35.60;33.20
32173;DHT22;18679;45.190;5.722;2023-07-29T12:11:45;36.70;32.30
32173;DHT22;18679;45.190;5.722;2023-07-29T12:14:46;37.30;31.20
32173;DHT22;18679;45.190;5.722;2023-07-29T12:17:47;37.50;30.70
32173;DHT22;18679;45.190;5.722;2023-07-29T12:20:48;37.60;30.60
32173;DHT22;18679;45.190;5.722;2023-07-29T12:23:50;37.60;30.30
32173;DHT22;18679;45.190;5.722;2023-07-29T12:26:51;37.60;30.20
32173;DHT22;18679;45.190;5.722;2023-07-29T12:29:53;37.60;30.10
32173;DHT22;18679;45.190;5.722;2023-07-29T12:32:54;37.80;30.00
32173;DHT22;18679;45.190;5.722;2023-07-29T12:35:55;38.30;29.30
32173;DHT22;18679;45.190;5.722;2023-07-29T12:38:59;38.60;28.90
32173;DHT22;18679;45.190;5.722;2023-07-29T12:42:01;39.20;28.20
32173;DHT22;18679;45.190;5.722;2023-07-29T12:45:02;39.70;27.40
32173;DHT22;18679;45.190;5.722;2023-07-29T12:48:03;40.10;26.80
32173;DHT22;18679;45.190;5.722;2023-07-29T12:51:04;40.60;26.30
32173;DHT22;18679;45.190;5.722;2023-07-29T12:54:05;41.00;25.80
32173;DHT22;18679;45.190;5.722;2023-07-29T12:57:06;41.50;25.40
32173;DHT22;18679;45.190;5.722;2023-07-29T13:00:07;42.10;25.00
32173;DHT22;18679;45.190;5.722;2023-07-29T13:03:09;42.40;24.40
32173;DHT22;18679;45.190;5.722;2023-07-29T13:06:10;42.20;24.20
32173;DHT22;18679;45.190;5.722;2023-07-29T13:09:11;42.00;24.40
32173;DHT22;18679;45.190;5.722;2023-07-29T13:12:11;41.90;24.60
32173;DHT22;18679;45.190;5.722;2023-07-29T13:15:12;41.80;24.70
32173;DHT22;18679;45.190;5.722;2023-07-29T13:18:13;41.70;24.80
32173;DHT22;18679;45.190;5.722;2023-07-29T13:21:14;42.00;24.70
32173;DHT22;18679;45.190;5.722;2023-07-29T13:24:15;42.70;24.30
32173;DHT22;18679;45.190;5.722;2023-07-29T13:27:16;43.00;24.00
32173;DHT22;18679;45.190;5.722;2023-07-29T13:30:17;42.80;24.10
32173;DHT22;18679;45.190;5.722;2023-07-29T13:33:17;41.80;24.80
32173;DHT22;18679;45.190;5.722;2023-07-29T13:36:18;40.60;25.90
32173;DHT22;18679;45.190;5.722;2023-07-29T13:39:19;39.50;26.90
32173;DHT22;18679;45.190;5.722;2023-07-29T13:42:20;38.60;27.70
32173;DHT22;18679;45.190;5.722;2023-07-29T13:45:21;37.90;28.40
32173;DHT22;18679;45.190;5.722;2023-07-29T13:48:22;37.50;28.90
32173;DHT22;18679;45.190;5.722;2023-07-29T13:51:23;37.50;29.30
32173;DHT22;18679;45.190;5.722;2023-07-29T13:54:23;37.80;29.00
32173;DHT22;18679;45.190;5.722;2023-07-29T13:57:24;37.80;29.00
32173;DHT22;18679;45.190;5.722;2023-07-29T14:00:25;38.00;29.00
32173;DHT22;18679;45.190;5.722;2023-07-29T14:03:26;38.70;28.40
32173;DHT22;18679;45.190;5.722;2023-07-29T14:06:30;40.10;27.30
32173;DHT22;18679;45.190;5.722;2023-07-29T14:09:31;41.70;25.90
32173;DHT22;18679;45.190;5.722;2023-07-29T14:12:31;42.90;24.60
32173;DHT22;18679;45.190;5.722;2023-07-29T14:15:32;44.10;23.80
32173;DHT22;18679;45.190;5.722;2023-07-29T14:18:33;45.10;22.60
32173;DHT22;18679;45.190;5.722;2023-07-29T14:21:34;45.50;22.00
32173;DHT22;18679;45.190;5.722;2023-07-29T14:24:35;45.50;21.80
32173;DHT22;18679;45.190;5.722;2023-07-29T14:27:35;45.50;21.80
32173;DHT22;18679;45.190;5.722;2023-07-29T14:30:36;44.60;22.10
32173;DHT22;18679;45.190;5.722;2023-07-29T14:33:38;43.50;22.90
32173;DHT22;18679;45.190;5.722;2023-07-29T14:36:39;42.20;24.50
32173;DHT22;18679;45.190;5.722;2023-07-29T14:39:39;41.00;25.00
32173;DHT22;18679;45.190;5.722;2023-07-29T14:42:40;40.00;25.90
32173;DHT22;18679;45.190;5.722;2023-07-29T14:45:41;39.10;26.80
32173;DHT22;18679;45.190;5.722;2023-07-29T14:48:42;38.50;27.50
32173;DHT22;18679;45.190;5.722;2023-07-29T14:51:43;38.30;27.80
32173;DHT22;18679;45.190;5.722;2023-07-29T14:54:43;38.90;27.40
32173;DHT22;18679;45.190;5.722;2023-07-29T14:57:44;39.80;26.50
32173;DHT22;18679;45.190;5.722;2023-07-29T15:00:45;40.60;26.30
32173;DHT22;18679;45.190;5.722;2023-07-29T15:03:47;40.50;25.80
32173;DHT22;18679;45.190;5.722;2023-07-29T15:06:48;39.90;26.30
32173;DHT22;18679;45.190;5.722;2023-07-29T15:09:49;39.40;26.80
32173;DHT22;18679;45.190;5.722;2023-07-29T15:12:49;39.00;27.30
32173;DHT22;18679;45.190;5.722;2023-07-29T15:15:50;38.50;27.60
32173;DHT22;18679;45.190;5.722;2023-07-29T15:18:52;38.10;28.10
32173;DHT22;18679;45.190;5.722;2023-07-29T15:21:52;37.80;28.50
32173;DHT22;18679;45.190;5.722;2023-07-29T15:24:56;37.60;28.80
32173;DHT22;18679;45.190;5.722;2023-07-29T15:27:57;37.30;29.10
32173;DHT22;18679;45.190;5.722;2023-07-29T15:30:58;36.90;29.60
32173;DHT22;18679;45.190;5.722;2023-07-29T15:33:59;36.40;30.00
32173;DHT22;18679;45.190;5.722;2023-07-29T15:37:01;35.80;30.80
32173;DHT22;18679;45.190;5.722;2023-07-29T15:40:02;35.40;31.70
32173;DHT22;18679;45.190;5.722;2023-07-29T15:43:03;34.90;32.40
32173;DHT22;18679;45.190;5.722;2023-07-29T15:46:04;34.50;33.10
32173;DHT22;18679;45.190;5.722;2023-07-29T15:49:05;34.10;33.70
32173;DHT22;18679;45.190;5.722;2023-07-29T15:52:06;33.70;34.40
32173;DHT22;18679;45.190;5.722;2023-07-29T15:55:09;33.40;34.90
32173;DHT22;18679;45.190;5.722;2023-07-29T15:58:10;33.20;35.30
32173;DHT22;18679;45.190;5.722;2023-07-29T16:01:11;32.90;35.80
32173;DHT22;18679;45.190;5.722;2023-07-29T16:04:11;32.70;36.20
32173;DHT22;18679;45.190;5.722;2023-07-29T16:07:15;32.60;36.60
32173;DHT22;18679;45.190;5.722;2023-07-29T16:10:16;32.40;37.10
32173;DHT22;18679;45.190;5.722;2023-07-29T16:13:17;32.20;37.40
32173;DHT22;18679;45.190;5.722;2023-07-29T16:16:18;32.10;38.30
32173;DHT22;18679;45.190;5.722;2023-07-29T16:19:24;32.00;37.90
32173;DHT22;18679;45.190;5.722;2023-07-29T16:22:26;31.90;38.20
32173;DHT22;18679;45.190;5.722;2023-07-29T16:25:27;31.80;38.30
32173;DHT22;18679;45.190;5.722;2023-07-29T16:28:27;31.70;38.50
32173;DHT22;18679;45.190;5.722;2023-07-29T16:31:28;31.60;38.60
32173;DHT22;18679;45.190;5.722;2023-07-29T16:34:29;31.60;38.90
32173;DHT22;18679;45.190;5.722;2023-07-29T16:37:30;31.50;39.20
32173;DHT22;18679;45.190;5.722;2023-07-29T16:40:31;31.40;39.70
32173;DHT22;18679;45.190;5.722;2023-07-29T16:43:31;31.30;40.10
32173;DHT22;18679;45.190;5.722;2023-07-29T16:46:32;31.30;40.50
32173;DHT22;18679;45.190;5.722;2023-07-29T16:49:33;31.20;41.00
32173;DHT22;18679;45.190;5.722;2023-07-29T16:52:34;31.20;41.60
32173;DHT22;18679;45.190;5.722;2023-07-29T16:55:35;31.10;42.00
32173;DHT22;18679;45.190;5.722;2023-07-29T16:58:36;31.00;42.20
32173;DHT22;18679;45.190;5.722;2023-07-29T17:01:37;30.70;42.20
32173;DHT22;18679;45.190;5.722;2023-07-29T17:04:38;31.00;43.30
32173;DHT22;18679;45.190;5.722;2023-07-29T17:07:39;30.50;44.10
32173;DHT22;18679;45.190;5.722;2023-07-29T17:10:39;30.40;44.50
32173;DHT22;18679;45.190;5.722;2023-07-29T17:13:40;30.30;44.80
32173;DHT22;18679;45.190;5.722;2023-07-29T17:16:41;30.20;44.80
32173;DHT22;18679;45.190;5.722;2023-07-29T17:19:42;30.00;44.70
32173;DHT22;18679;45.190;5.722;2023-07-29T17:22:45;29.90;45.00
32173;DHT22;18679;45.190;5.722;2023-07-29T17:25:45;29.80;45.90
32173;DHT22;18679;45.190;5.722;2023-07-29T17:28:46;29.50;46.60
32173;DHT22;18679;45.190;5.722;2023-07-29T17:31:47;29.30;46.90
32173;DHT22;18679;45.190;5.722;2023-07-29T17:34:48;28.80;47.30
32173;DHT22;18679;45.190;5.722;2023-07-29T17:37:49;28.80;48.60
32173;DHT22;18679;45.190;5.722;2023-07-29T17:40:49;28.60;49.30
32173;DHT22;18679;45.190;5.722;2023-07-29T17:43:53;28.40;50.20
32173;DHT22;18679;45.190;5.722;2023-07-29T17:46:54;28.10;51.50
32173;DHT22;18679;45.190;5.722;2023-07-29T17:49:56;28.00;53.10
32173;DHT22;18679;45.190;5.722;2023-07-29T17:52:57;27.80;53.30
32173;DHT22;18679;45.190;5.722;2023-07-29T17:55:58;27.70;54.00
32173;DHT22;18679;45.190;5.722;2023-07-29T17:58:59;27.60;54.80
32173;DHT22;18679;45.190;5.722;2023-07-29T18:02:00;27.50;55.40
32173;DHT22;18679;45.190;5.722;2023-07-29T18:05:01;27.40;55.60
32173;DHT22;18679;45.190;5.722;2023-07-29T18:08:02;27.30;56.30
32173;DHT22;18679;45.190;5.722;2023-07-29T18:11:03;27.20;56.70
32173;DHT22;18679;45.190;5.722;2023-07-29T18:14:04;27.10;56.90
32173;DHT22;18679;45.190;5.722;2023-07-29T18:17:05;27.10;57.40
32173;DHT22;18679;45.190;5.722;2023-07-29T18:20:06;27.00;57.80
32173;DHT22;18679;45.190;5.722;2023-07-29T18:23:07;26.90;57.80
32173;DHT22;18679;45.190;5.722;2023-07-29T18:26:08;26.90;58.40
32173;DHT22;18679;45.190;5.722;2023-07-29T18:29:09;26.70;59.10
32173;DHT22;18679;45.190;5.722;2023-07-29T18:32:10;26.60;59.80
32173;DHT22;18679;45.190;5.722;2023-07-29T18:35:11;26.40;60.40
32173;DHT22;18679;45.190;5.722;2023-07-29T18:38:17;26.30;60.60
32173;DHT22;18679;45.190;5.722;2023-07-29T18:41:18;26.20;60.60
32173;DHT22;18679;45.190;5.722;2023-07-29T18:44:19;26.10;60.80
32173;DHT22;18679;45.190;5.722;2023-07-29T18:47:20;26.10;61.40
32173;DHT22;18679;45.190;5.722;2023-07-29T18:50:21;26.00;60.40
32173;DHT22;18679;45.190;5.722;2023-07-29T18:53:21;25.90;61.40
32173;DHT22;18679;45.190;5.722;2023-07-29T18:56:22;25.90;62.30
32173;DHT22;18679;45.190;5.722;2023-07-29T18:59:23;25.90;62.70
32173;DHT22;18679;45.190;5.722;2023-07-29T19:02:24;25.90;63.20
32173;DHT22;18679;45.190;5.722;2023-07-29T19:05:25;26.00;64.10
32173;DHT22;18679;45.190;5.722;2023-07-29T19:08:25;26.00;64.00
32173;DHT22;18679;45.190;5.722;2023-07-29T19:11:27;25.90;63.90
32173;DHT22;18679;45.190;5.722;2023-07-29T19:14:28;25.90;64.20